sensor_id;sensor_type;location;lat;lon;timestamp;P1;durP1;ratioP1;P2;durP2;ratioP2
31906;SDS011;18455;50.858;13.662;2022-12-18T00:02:44;10.43;;;5.70;;
31906;SDS011;18455;50.858;13.662;2022-12-18T00:07:44;9.70;;;5.80;;
31906;SDS011;18455;50.858;13.662;2022-12-18T00:12:45;13.23;;;6.17;;
31906;SDS011;18455;50.858;13.662;2022-12-18T00:17:45;7.70;;;3.50;;
31906;SDS011;18455;50.858;13.662;2022-12-18T00:22:45;6.03;;;3.17;;
31906;SDS011;18455;50.858;13.662;2022-12-18T00:27:45;12.80;;;5.40;;
31906;SDS011;18455;50.858;13.662;2022-12-18T00:32:47;6.70;;;3.63;;
31906;SDS011;18455;50.858;13.662;2022-12-18T00:37:47;4.15;;;2.97;;
31906;SDS011;18455;50.858;13.662;2022-12-18T00:42:47;5.40;;;3.17;;
31906;SDS011;18455;50.858;13.662;2022-12-18T00:47:57;8.57;;;4.33;;
31906;SDS011;18455;50.858;13.662;2022-12-18T00:52:57;6.83;;;3.67;;
31906;SDS011;18455;50.858;13.662;2022-12-18T00:57:57;11.67;;;4.80;;
31906;SDS011;18455;50.858;13.662;2022-12-18T01:02:58;6.83;;;3.53;;
31906;SDS011;18455;50.858;13.662;2022-12-18T01:07:58;6.50;;;3.60;;
31906;SDS011;18455;50.858;13.662;2022-12-18T01:12:58;7.55;;;4.57;;
31906;SDS011;18455;50.858;13.662;2022-12-18T01:17:59;8.50;;;4.13;;
31906;SDS011;18455;50.858;13.662;2022-12-18T01:23:00;5.00;;;3.10;;
31906;SDS011;18455;50.858;13.662;2022-12-18T01:28:01;8.33;;;3.60;;
31906;SDS011;18455;50.858;13.662;2022-12-18T01:33:02;5.73;;;3.20;;
31906;SDS011;18455;50.858;13.662;2022-12-18T01:38:04;7.10;;;2.93;;
31906;SDS011;18455;50.858;13.662;2022-12-18T01:43:05;3.83;;;2.93;;
31906;SDS011;18455;50.858;13.662;2022-12-18T01:48:06;6.93;;;2.95;;
31906;SDS011;18455;50.858;13.662;2022-12-18T01:53:11;5.63;;;3.10;;
31906;SDS011;18455;50.858;13.662;2022-12-18T01:58:12;8.13;;;4.33;;
31906;SDS011;18455;50.858;13.662;2022-12-18T02:03:13;6.47;;;2.07;;
31906;SDS011;18455;50.858;13.662;2022-12-18T02:08:20;10.20;;;4.50;;
31906;SDS011;18455;50.858;13.662;2022-12-18T02:13:30;7.07;;;3.80;;
31906;SDS011;18455;50.858;13.662;2022-12-18T02:18:36;4.20;;;2.40;;
31906;SDS011;18455;50.858;13.662;2022-12-18T02:28:41;7.20;;;3.00;;
31906;SDS011;18455;50.858;13.662;2022-12-18T02:33:43;7.13;;;4.13;;
31906;SDS011;18455;50.858;13.662;2022-12-18T02:38:44;13.53;;;3.90;;
31906;SDS011;18455;50.858;13.662;2022-12-18T02:43:48;5.13;;;2.60;;
31906;SDS011;18455;50.858;13.662;2022-12-18T02:48:49;9.30;;;4.10;;
31906;SDS011;18455;50.858;13.662;2022-12-18T02:54:02;6.57;;;2.77;;
31906;SDS011;18455;50.858;13.662;2022-12-18T02:59:18;4.43;;;2.33;;
31906;SDS011;18455;50.858;13.662;2022-12-18T03:04:26;3.07;;;2.13;;
31906;SDS011;18455;50.858;13.662;2022-12-18T03:09:31;3.00;;;2.20;;
31906;SDS011;18455;50.858;13.662;2022-12-18T03:14:32;3.40;;;2.00;;
31906;SDS011;18455;50.858;13.662;2022-12-18T03:19:34;7.13;;;2.90;;
31906;SDS011;18455;50.858;13.662;2022-12-18T03:24:37;2.27;;;2.03;;
31906;SDS011;18455;50.858;13.662;2022-12-18T03:29:51;3.87;;;2.63;;
31906;SDS011;18455;50.858;13.662;2022-12-18T03:34:59;5.00;;;2.53;;
31906;SDS011;18455;50.858;13.662;2022-12-18T03:40:05;1.70;;;1.47;;
31906;SDS011;18455;50.858;13.662;2022-12-18T03:45:18;5.60;;;2.40;;
31906;SDS011;18455;50.858;13.662;2022-12-18T03:50:22;8.17;;;3.03;;
31906;SDS011;18455;50.858;13.662;2022-12-18T03:55:26;9.60;;;3.90;;
31906;SDS011;18455;50.858;13.662;2022-12-18T04:00:33;7.93;;;4.80;;
31906;SDS011;18455;50.858;13.662;2022-12-18T04:05:40;6.03;;;3.00;;
31906;SDS011;18455;50.858;13.662;2022-12-18T04:10:42;4.77;;;2.40;;
31906;SDS011;18455;50.858;13.662;2022-12-18T04:15:43;3.80;;;2.43;;
31906;SDS011;18455;50.858;13.662;2022-12-18T04:20:47;7.17;;;3.80;;
31906;SDS011;18455;50.858;13.662;2022-12-18T04:25:48;6.57;;;4.17;;
31906;SDS011;18455;50.858;13.662;2022-12-18T04:30:56;9.40;;;3.20;;
31906;SDS011;18455;50.858;13.662;2022-12-18T04:35:56;10.13;;;3.05;;
31906;SDS011;18455;50.858;13.662;2022-12-18T04:40:57;5.43;;;3.10;;
31906;SDS011;18455;50.858;13.662;2022-12-18T04:46:04;8.80;;;4.20;;
31906;SDS011;18455;50.858;13.662;2022-12-18T04:51:05;9.23;;;4.47;;
31906;SDS011;18455;50.858;13.662;2022-12-18T04:56:06;11.77;;;4.30;;
31906;SDS011;18455;50.858;13.662;2022-12-18T05:01:07;11.40;;;5.03;;
31906;SDS011;18455;50.858;13.662;2022-12-18T05:06:10;11.73;;;4.93;;
31906;SDS011;18455;50.858;13.662;2022-12-18T05:11:11;8.90;;;4.45;;
31906;SDS011;18455;50.858;13.662;2022-12-18T05:16:12;11.23;;;4.70;;
31906;SDS011;18455;50.858;13.662;2022-12-18T05:21:12;7.53;;;4.43;;
31906;SDS011;18455;50.858;13.662;2022-12-18T05:26:17;8.67;;;3.43;;
31906;SDS011;18455;50.858;13.662;2022-12-18T05:31:17;8.43;;;4.17;;
31906;SDS011;18455;50.858;13.662;2022-12-18T05:36:17;8.03;;;4.03;;
31906;SDS011;18455;50.858;13.662;2022-12-18T05:41:17;10.23;;;4.63;;
31906;SDS011;18455;50.858;13.662;2022-12-18T05:46:18;12.25;;;5.15;;
31906;SDS011;18455;50.858;13.662;2022-12-18T05:51:19;3.17;;;2.87;;
31906;SDS011;18455;50.858;13.662;2022-12-18T05:56:21;7.60;;;4.23;;
31906;SDS011;18455;50.858;13.662;2022-12-18T06:06:32;7.40;;;4.50;;
31906;SDS011;18455;50.858;13.662;2022-12-18T06:11:32;9.00;;;5.10;;
31906;SDS011;18455;50.858;13.662;2022-12-18T06:16:32;9.00;;;4.53;;
31906;SDS011;18455;50.858;13.662;2022-12-18T06:21:33;14.63;;;5.78;;
31906;SDS011;18455;50.858;13.662;2022-12-18T06:26:33;7.23;;;3.90;;
31906;SDS011;18455;50.858;13.662;2022-12-18T06:31:34;10.13;;;5.07;;
31906;SDS011;18455;50.858;13.662;2022-12-18T06:36:34;11.88;;;6.63;;
31906;SDS011;18455;50.858;13.662;2022-12-18T06:41:34;7.83;;;4.13;;
31906;SDS011;18455;50.858;13.662;2022-12-18T06:46:34;5.23;;;2.87;;
31906;SDS011;18455;50.858;13.662;2022-12-18T06:51:35;8.93;;;4.57;;
31906;SDS011;18455;50.858;13.662;2022-12-18T06:56:35;13.37;;;5.13;;
31906;SDS011;18455;50.858;13.662;2022-12-18T07:01:35;12.50;;;6.07;;
31906;SDS011;18455;50.858;13.662;2022-12-18T07:06:36;7.77;;;3.97;;
31906;SDS011;18455;50.858;13.662;2022-12-18T07:11:36;11.70;;;4.60;;
31906;SDS011;18455;50.858;13.662;2022-12-18T07:16:36;19.40;;;9.43;;
31906;SDS011;18455;50.858;13.662;2022-12-18T07:21:36;10.30;;;5.63;;
31906;SDS011;18455;50.858;13.662;2022-12-18T07:26:36;22.33;;;10.90;;
31906;SDS011;18455;50.858;13.662;2022-12-18T07:31:37;18.27;;;8.20;;
31906;SDS011;18455;50.858;13.662;2022-12-18T07:36:37;77.43;;;25.33;;
31906;SDS011;18455;50.858;13.662;2022-12-18T07:41:37;55.60;;;22.13;;
31906;SDS011;18455;50.858;13.662;2022-12-18T07:46:42;23.47;;;10.13;;
31906;SDS011;18455;50.858;13.662;2022-12-18T07:51:42;40.30;;;19.93;;
31906;SDS011;18455;50.858;13.662;2022-12-18T07:56:45;27.30;;;14.23;;
31906;SDS011;18455;50.858;13.662;2022-12-18T08:01:46;13.73;;;6.80;;
31906;SDS011;18455;50.858;13.662;2022-12-18T08:06:46;13.20;;;6.03;;
31906;SDS011;18455;50.858;13.662;2022-12-18T08:11:46;16.47;;;6.97;;
31906;SDS011;18455;50.858;13.662;2022-12-18T08:16:47;19.70;;;7.77;;
31906;SDS011;18455;50.858;13.662;2022-12-18T08:21:47;15.77;;;6.93;;
31906;SDS011;18455;50.858;13.662;2022-12-18T08:26:47;20.60;;;8.33;;
31906;SDS011;18455;50.858;13.662;2022-12-18T08:31:47;23.93;;;11.47;;
31906;SDS011;18455;50.858;13.662;2022-12-18T08:36:48;18.80;;;10.83;;
31906;SDS011;18455;50.858;13.662;2022-12-18T08:41:48;17.50;;;8.73;;
31906;SDS011;18455;50.858;13.662;2022-12-18T08:47:08;10.90;;;6.43;;
31906;SDS011;18455;50.858;13.662;2022-12-18T08:52:08;14.52;;;8.05;;
31906;SDS011;18455;50.858;13.662;2022-12-18T08:57:09;15.80;;;6.47;;
31906;SDS011;18455;50.858;13.662;2022-12-18T09:02:10;16.10;;;7.60;;
31906;SDS011;18455;50.858;13.662;2022-12-18T09:07:11;12.97;;;5.83;;
31906;SDS011;18455;50.858;13.662;2022-12-18T09:12:11;14.37;;;6.67;;
31906;SDS011;18455;50.858;13.662;2022-12-18T09:17:11;10.80;;;5.80;;
31906;SDS011;18455;50.858;13.662;2022-12-18T09:22:11;15.65;;;8.13;;
31906;SDS011;18455;50.858;13.662;2022-12-18T09:27:11;18.20;;;7.23;;
31906;SDS011;18455;50.858;13.662;2022-12-18T09:32:12;14.83;;;6.43;;
31906;SDS011;18455;50.858;13.662;2022-12-18T09:37:12;16.73;;;7.97;;
31906;SDS011;18455;50.858;13.662;2022-12-18T09:42:14;10.10;;;4.43;;
31906;SDS011;18455;50.858;13.662;2022-12-18T09:47:23;9.13;;;6.27;;
31906;SDS011;18455;50.858;13.662;2022-12-18T09:52:28;13.47;;;6.83;;
31906;SDS011;18455;50.858;13.662;2022-12-18T09:57:31;11.97;;;6.23;;
31906;SDS011;18455;50.858;13.662;2022-12-18T10:02:32;6.73;;;4.07;;
31906;SDS011;18455;50.858;13.662;2022-12-18T10:07:43;14.40;;;7.53;;
31906;SDS011;18455;50.858;13.662;2022-12-18T10:13:01;17.43;;;7.23;;
31906;SDS011;18455;50.858;13.662;2022-12-18T10:23:04;11.00;;;6.50;;
31906;SDS011;18455;50.858;13.662;2022-12-18T10:28:15;12.80;;;6.50;;
31906;SDS011;18455;50.858;13.662;2022-12-18T10:33:19;11.00;;;5.57;;
31906;SDS011;18455;50.858;13.662;2022-12-18T10:38:24;8.20;;;4.13;;
31906;SDS011;18455;50.858;13.662;2022-12-18T10:43:28;8.30;;;4.80;;
31906;SDS011;18455;50.858;13.662;2022-12-18T10:48:30;8.57;;;4.27;;
31906;SDS011;18455;50.858;13.662;2022-12-18T10:53:31;7.53;;;3.83;;
31906;SDS011;18455;50.858;13.662;2022-12-18T10:58:32;7.03;;;3.70;;
31906;SDS011;18455;50.858;13.662;2022-12-18T11:04:19;7.43;;;3.83;;
31906;SDS011;18455;50.858;13.662;2022-12-18T11:09:01;4.67;;;3.27;;
31906;SDS011;18455;50.858;13.662;2022-12-18T11:14:02;3.87;;;2.37;;
31906;SDS011;18455;50.858;13.662;2022-12-18T11:19:11;6.07;;;3.73;;
31906;SDS011;18455;50.858;13.662;2022-12-18T11:24:20;7.53;;;3.93;;
31906;SDS011;18455;50.858;13.662;2022-12-18T11:29:28;6.37;;;3.57;;
31906;SDS011;18455;50.858;13.662;2022-12-18T11:34:30;5.80;;;3.57;;
31906;SDS011;18455;50.858;13.662;2022-12-18T11:39:40;8.40;;;3.87;;
31906;SDS011;18455;50.858;13.662;2022-12-18T11:44:42;4.50;;;2.60;;
31906;SDS011;18455;50.858;13.662;2022-12-18T11:49:44;4.20;;;2.57;;
31906;SDS011;18455;50.858;13.662;2022-12-18T11:54:50;6.13;;;3.47;;
31906;SDS011;18455;50.858;13.662;2022-12-18T11:59:56;5.80;;;3.70;;
31906;SDS011;18455;50.858;13.662;2022-12-18T12:15:34;8.70;;;2.87;;
31906;SDS011;18455;50.858;13.662;2022-12-18T12:20:42;4.63;;;3.13;;
31906;SDS011;18455;50.858;13.662;2022-12-18T12:25:46;8.80;;;5.57;;
31906;SDS011;18455;50.858;13.662;2022-12-18T12:31:06;4.67;;;2.33;;
31906;SDS011;18455;50.858;13.662;2022-12-18T12:41:10;5.33;;;3.47;;
31906;SDS011;18455;50.858;13.662;2022-12-18T12:46:32;7.20;;;3.73;;
31906;SDS011;18455;50.858;13.662;2022-12-18T12:56:44;6.60;;;3.83;;
31906;SDS011;18455;50.858;13.662;2022-12-18T13:01:53;7.50;;;3.57;;
31906;SDS011;18455;50.858;13.662;2022-12-18T13:12:13;6.47;;;3.67;;
31906;SDS011;18455;50.858;13.662;2022-12-18T13:17:34;8.50;;;4.10;;
31906;SDS011;18455;50.858;13.662;2022-12-18T13:22:39;7.33;;;4.17;;
31906;SDS011;18455;50.858;13.662;2022-12-18T13:32:44;12.40;;;3.77;;
31906;SDS011;18455;50.858;13.662;2022-12-18T13:37:51;7.57;;;5.03;;
31906;SDS011;18455;50.858;13.662;2022-12-18T13:42:52;6.53;;;3.30;;
31906;SDS011;18455;50.858;13.662;2022-12-18T13:48:14;7.63;;;4.17;;
31906;SDS011;18455;50.858;13.662;2022-12-18T13:53:23;5.63;;;2.97;;
31906;SDS011;18455;50.858;13.662;2022-12-18T13:58:24;3.97;;;2.30;;
31906;SDS011;18455;50.858;13.662;2022-12-18T14:03:25;4.13;;;2.63;;
31906;SDS011;18455;50.858;13.662;2022-12-18T14:08:27;6.87;;;3.17;;
31906;SDS011;18455;50.858;13.662;2022-12-18T14:13:32;21.43;;;9.73;;
31906;SDS011;18455;50.858;13.662;2022-12-18T14:18:38;38.47;;;17.50;;
31906;SDS011;18455;50.858;13.662;2022-12-18T14:23:40;44.93;;;20.50;;
31906;SDS011;18455;50.858;13.662;2022-12-18T14:28:43;44.47;;;22.03;;
31906;SDS011;18455;50.858;13.662;2022-12-18T14:33:44;24.73;;;14.73;;
31906;SDS011;18455;50.858;13.662;2022-12-18T14:38:47;14.37;;;6.10;;
31906;SDS011;18455;50.858;13.662;2022-12-18T14:43:49;11.47;;;5.20;;
31906;SDS011;18455;50.858;13.662;2022-12-18T14:48:49;12.50;;;5.60;;
31906;SDS011;18455;50.858;13.662;2022-12-18T14:53:54;8.60;;;4.40;;
31906;SDS011;18455;50.858;13.662;2022-12-18T14:59:02;9.70;;;4.00;;
31906;SDS011;18455;50.858;13.662;2022-12-18T15:04:04;9.60;;;5.23;;
31906;SDS011;18455;50.858;13.662;2022-12-18T15:09:25;12.10;;;5.30;;
31906;SDS011;18455;50.858;13.662;2022-12-18T15:14:39;9.13;;;4.20;;
31906;SDS011;18455;50.858;13.662;2022-12-18T15:19:40;10.83;;;5.20;;
31906;SDS011;18455;50.858;13.662;2022-12-18T15:24:40;15.73;;;7.07;;
31906;SDS011;18455;50.858;13.662;2022-12-18T15:29:40;11.93;;;6.07;;
31906;SDS011;18455;50.858;13.662;2022-12-18T15:34:41;10.90;;;5.28;;
31906;SDS011;18455;50.858;13.662;2022-12-18T15:39:41;10.03;;;4.80;;
31906;SDS011;18455;50.858;13.662;2022-12-18T15:44:41;10.60;;;5.10;;
31906;SDS011;18455;50.858;13.662;2022-12-18T15:49:43;9.03;;;4.23;;
31906;SDS011;18455;50.858;13.662;2022-12-18T15:54:43;10.80;;;5.20;;
31906;SDS011;18455;50.858;13.662;2022-12-18T16:00:02;6.77;;;3.30;;
31906;SDS011;18455;50.858;13.662;2022-12-18T16:05:09;9.10;;;3.80;;
31906;SDS011;18455;50.858;13.662;2022-12-18T16:10:13;13.27;;;6.03;;
31906;SDS011;18455;50.858;13.662;2022-12-18T16:15:14;12.80;;;5.33;;
31906;SDS011;18455;50.858;13.662;2022-12-18T16:20:16;6.73;;;3.33;;
31906;SDS011;18455;50.858;13.662;2022-12-18T16:25:22;9.30;;;4.77;;
31906;SDS011;18455;50.858;13.662;2022-12-18T16:30:25;8.87;;;4.57;;
31906;SDS011;18455;50.858;13.662;2022-12-18T16:35:27;10.07;;;4.80;;
31906;SDS011;18455;50.858;13.662;2022-12-18T16:40:27;14.00;;;5.10;;
31906;SDS011;18455;50.858;13.662;2022-12-18T16:45:31;8.47;;;4.43;;
31906;SDS011;18455;50.858;13.662;2022-12-18T16:50:32;15.27;;;7.00;;
31906;SDS011;18455;50.858;13.662;2022-12-18T16:55:33;12.80;;;5.80;;
31906;SDS011;18455;50.858;13.662;2022-12-18T17:00:33;11.73;;;5.90;;
31906;SDS011;18455;50.858;13.662;2022-12-18T17:05:33;6.60;;;3.63;;
31906;SDS011;18455;50.858;13.662;2022-12-18T17:10:34;10.00;;;3.73;;
31906;SDS011;18455;50.858;13.662;2022-12-18T17:15:34;4.70;;;3.30;;
31906;SDS011;18455;50.858;13.662;2022-12-18T17:20:35;5.03;;;2.80;;
31906;SDS011;18455;50.858;13.662;2022-12-18T17:25:38;11.77;;;5.33;;
31906;SDS011;18455;50.858;13.662;2022-12-18T17:30:38;8.60;;;4.03;;
31906;SDS011;18455;50.858;13.662;2022-12-18T17:35:39;6.68;;;3.65;;
31906;SDS011;18455;50.858;13.662;2022-12-18T17:40:39;5.40;;;3.20;;
31906;SDS011;18455;50.858;13.662;2022-12-18T17:45:42;4.97;;;2.97;;
31906;SDS011;18455;50.858;13.662;2022-12-18T17:50:42;6.60;;;3.70;;
31906;SDS011;18455;50.858;13.662;2022-12-18T17:55:43;9.23;;;3.37;;
31906;SDS011;18455;50.858;13.662;2022-12-18T18:00:43;3.53;;;2.20;;
31906;SDS011;18455;50.858;13.662;2022-12-18T18:05:43;4.23;;;2.90;;
31906;SDS011;18455;50.858;13.662;2022-12-18T18:10:43;4.37;;;2.13;;
31906;SDS011;18455;50.858;13.662;2022-12-18T18:15:44;4.88;;;2.83;;
31906;SDS011;18455;50.858;13.662;2022-12-18T18:20:44;5.80;;;2.80;;
31906;SDS011;18455;50.858;13.662;2022-12-18T18:25:44;4.30;;;2.00;;
31906;SDS011;18455;50.858;13.662;2022-12-18T18:30:45;7.33;;;3.30;;
31906;SDS011;18455;50.858;13.662;2022-12-18T18:35:45;2.90;;;1.70;;
31906;SDS011;18455;50.858;13.662;2022-12-18T18:40:46;5.07;;;2.53;;
31906;SDS011;18455;50.858;13.662;2022-12-18T18:45:46;2.50;;;2.00;;
31906;SDS011;18455;50.858;13.662;2022-12-18T18:50:59;4.20;;;1.50;;
31906;SDS011;18455;50.858;13.662;2022-12-18T18:55:59;3.43;;;1.67;;
31906;SDS011;18455;50.858;13.662;2022-12-18T19:01:04;4.67;;;2.10;;
31906;SDS011;18455;50.858;13.662;2022-12-18T19:06:05;3.33;;;2.20;;
31906;SDS011;18455;50.858;13.662;2022-12-18T19:11:06;4.80;;;2.10;;
31906;SDS011;18455;50.858;13.662;2022-12-18T19:16:30;3.00;;;2.03;;
31906;SDS011;18455;50.858;13.662;2022-12-18T19:21:30;5.30;;;2.17;;
31906;SDS011;18455;50.858;13.662;2022-12-18T19:26:31;3.27;;;1.90;;
31906;SDS011;18455;50.858;13.662;2022-12-18T19:31:32;2.43;;;1.53;;
31906;SDS011;18455;50.858;13.662;2022-12-18T19:36:32;5.10;;;2.03;;
31906;SDS011;18455;50.858;13.662;2022-12-18T19:41:33;2.67;;;1.40;;
31906;SDS011;18455;50.858;13.662;2022-12-18T19:46:34;5.07;;;2.23;;
31906;SDS011;18455;50.858;13.662;2022-12-18T19:51:34;3.37;;;1.93;;
31906;SDS011;18455;50.858;13.662;2022-12-18T19:56:34;1.47;;;1.20;;
31906;SDS011;18455;50.858;13.662;2022-12-18T20:01:34;3.53;;;2.22;;
31906;SDS011;18455;50.858;13.662;2022-12-18T20:06:44;4.40;;;1.90;;
31906;SDS011;18455;50.858;13.662;2022-12-18T20:11:45;4.20;;;2.20;;
31906;SDS011;18455;50.858;13.662;2022-12-18T20:16:45;3.03;;;2.30;;
31906;SDS011;18455;50.858;13.662;2022-12-18T20:21:46;4.00;;;2.20;;
31906;SDS011;18455;50.858;13.662;2022-12-18T20:26:46;2.77;;;1.90;;
31906;SDS011;18455;50.858;13.662;2022-12-18T20:31:46;2.57;;;2.10;;
31906;SDS011;18455;50.858;13.662;2022-12-18T20:36:46;4.40;;;2.37;;
31906;SDS011;18455;50.858;13.662;2022-12-18T20:41:47;3.60;;;2.13;;
31906;SDS011;18455;50.858;13.662;2022-12-18T20:46:47;3.63;;;2.33;;
31906;SDS011;18455;50.858;13.662;2022-12-18T20:51:51;3.90;;;2.43;;
31906;SDS011;18455;50.858;13.662;2022-12-18T20:56:51;4.53;;;2.63;;
31906;SDS011;18455;50.858;13.662;2022-12-18T21:01:52;3.87;;;2.50;;
31906;SDS011;18455;50.858;13.662;2022-12-18T21:06:52;6.45;;;2.50;;
31906;SDS011;18455;50.858;13.662;2022-12-18T21:11:53;4.47;;;2.20;;
31906;SDS011;18455;50.858;13.662;2022-12-18T21:17:12;4.57;;;2.40;;
31906;SDS011;18455;50.858;13.662;2022-12-18T21:22:12;4.33;;;2.47;;
31906;SDS011;18455;50.858;13.662;2022-12-18T21:27:12;4.27;;;2.73;;
31906;SDS011;18455;50.858;13.662;2022-12-18T21:32:13;3.97;;;2.20;;
31906;SDS011;18455;50.858;13.662;2022-12-18T21:37:13;3.35;;;1.83;;
31906;SDS011;18455;50.858;13.662;2022-12-18T21:42:13;3.27;;;2.00;;
31906;SDS011;18455;50.858;13.662;2022-12-18T21:47:32;3.50;;;2.20;;
31906;SDS011;18455;50.858;13.662;2022-12-18T21:52:32;3.20;;;2.33;;
31906;SDS011;18455;50.858;13.662;2022-12-18T21:57:32;5.97;;;3.47;;
31906;SDS011;18455;50.858;13.662;2022-12-18T22:02:33;3.10;;;1.33;;
31906;SDS011;18455;50.858;13.662;2022-12-18T22:07:33;3.87;;;2.60;;
31906;SDS011;18455;50.858;13.662;2022-12-18T22:12:33;4.43;;;2.47;;
31906;SDS011;18455;50.858;13.662;2022-12-18T22:17:36;3.70;;;2.40;;
31906;SDS011;18455;50.858;13.662;2022-12-18T22:22:37;4.57;;;2.33;;
31906;SDS011;18455;50.858;13.662;2022-12-18T22:27:37;4.13;;;2.47;;
31906;SDS011;18455;50.858;13.662;2022-12-18T22:32:37;7.07;;;4.50;;
31906;SDS011;18455;50.858;13.662;2022-12-18T22:37:37;8.50;;;4.13;;
31906;SDS011;18455;50.858;13.662;2022-12-18T22:42:37;10.77;;;3.80;;
31906;SDS011;18455;50.858;13.662;2022-12-18T22:47:38;4.50;;;2.67;;
31906;SDS011;18455;50.858;13.662;2022-12-18T22:52:38;8.57;;;4.13;;
31906;SDS011;18455;50.858;13.662;2022-12-18T22:57:38;4.17;;;2.87;;
31906;SDS011;18455;50.858;13.662;2022-12-18T23:02:39;8.70;;;4.23;;
31906;SDS011;18455;50.858;13.662;2022-12-18T23:07:39;6.53;;;3.47;;
31906;SDS011;18455;50.858;13.662;2022-12-18T23:12:39;7.43;;;3.73;;
31906;SDS011;18455;50.858;13.662;2022-12-18T23:17:39;8.40;;;4.07;;
31906;SDS011;18455;50.858;13.662;2022-12-18T23:22:40;5.60;;;3.20;;
31906;SDS011;18455;50.858;13.662;2022-12-18T23:27:40;8.97;;;4.33;;
31906;SDS011;18455;50.858;13.662;2022-12-18T23:32:40;9.73;;;5.07;;
31906;SDS011;18455;50.858;13.662;2022-12-18T23:37:41;8.67;;;5.23;;
31906;SDS011;18455;50.858;13.662;2022-12-18T23:42:41;8.67;;;4.27;;
31906;SDS011;18455;50.858;13.662;2022-12-18T23:47:41;9.60;;;5.13;;
31906;SDS011;18455;50.858;13.662;2022-12-18T23:52:41;11.27;;;4.63;;
31906;SDS011;18455;50.858;13.662;2022-12-18T23:57:41;9.60;;;4.93;;
